Madison, MN

10:34 PM CDT on May 25, 2017 (GMT -0500)
Madison-Lac Qui Parle County

Weather History for KDXX - May, 2014

Change the Weather History Date:

Wednesday, May 7, 2014

  Actual Average (KAQP) Record (KAQP)
Temperature  
Mean Temperature 60 °F -  
Max Temperature 69 °F 63 °F 131 °F (1997)
Min Temperature 51 °F 40 °F 6 °F (2000)
Degree Days  
Heating Degree Days 5    
Growing Degree Days 10 (Base 50)    
Moisture  
Dew Point 44 °F    
Average Humidity 57    
Maximum Humidity 77    
Minimum Humidity 42    
Precipitation  
Precipitation 0.00 in - - ()
Sea Level Pressure  
Sea Level Pressure 29.70 in    
Wind  
Wind Speed 14 mph (ENE)    
Max Wind Speed 20 mph    
Max Gust Speed 28 mph    
Visibility 10 miles    
Events Thunderstorm    
Averages and records for this station are not official NWS values.
T = Trace of Precipitation, MM = Missing Value Source: NWS Daily Summary

Daily Weather History Graph

Daily Weather History Graph

Search for Another Location

Airport or City:

Trip Planner

Search our weather history database for the weather conditions in past years. The results will help you decide how hot, cold, wet, or windy it might be!

Date:

Astronomy

May. 07, 2014 Rise Set
Actual Time 6:05 AM CDT 8:37 PM CDT
Civil Twilight 5:32 AM CDT 9:10 PM CDT
Nautical Twilight 4:50 AM CDT 9:52 PM CDT
Astronomical Twilight 4:03 AM CDT 10:40 PM CDT
Moon 1:25 PM CDT (5/7) 2:24 AM CDT (5/7)
Length of Visible Light 15h 38m
Length of Day
14h 32m
First Quarter, 55% of the Moon is Illuminated
May 7
First Quarter
May 14
Full
May 21
Last Quarter
May 28
New
Jun 5
First Quarter

Hourly Weather History & Observations

Time (CDT) Temp. Dew Point Humidity Pressure Visibility Wind Dir Wind Speed Gust Speed Precip Events Conditions
12:14 AM 62.6 °F 39.2 °F 42% 29.74 in 10.0 mi East 15.0 mph - N/A   Overcast
12:33 AM 60.8 °F 39.2 °F 45% 29.73 in 10.0 mi ESE 17.3 mph 20.7 mph N/A   Overcast
12:54 AM 60.8 °F 41.0 °F 48% 29.72 in 10.0 mi ESE 17.3 mph - N/A   Scattered Clouds
1:14 AM 60.8 °F 41.0 °F 48% 29.73 in 10.0 mi ESE 17.3 mph 25.3 mph N/A   Scattered Clouds
1:33 AM 60.8 °F 42.8 °F 52% 29.73 in 10.0 mi East 13.8 mph - N/A   Mostly Cloudy
1:54 AM 60.8 °F 42.8 °F 52% 29.72 in 10.0 mi East 15.0 mph - N/A   Overcast
2:14 AM 60.8 °F 42.8 °F 52% 29.71 in 10.0 mi East 16.1 mph - N/A   Overcast
2:33 AM 60.8 °F 42.8 °F 52% 29.70 in 10.0 mi East 15.0 mph - N/A   Overcast
2:54 AM 59.0 °F 42.8 °F 55% 29.70 in 10.0 mi East 17.3 mph - N/A   Overcast
3:14 AM 57.2 °F 42.8 °F 59% 29.70 in 10.0 mi East 13.8 mph - N/A   Mostly Cloudy
3:33 AM 57.2 °F 41.0 °F 55% 29.70 in 10.0 mi ESE 13.8 mph - N/A   Scattered Clouds
3:54 AM 55.4 °F 41.0 °F 58% 29.69 in 10.0 mi East 13.8 mph - N/A   Clear
4:14 AM 55.4 °F 41.0 °F 58% 29.70 in 10.0 mi East 12.7 mph - N/A   Clear
4:33 AM 55.4 °F 41.0 °F 58% 29.70 in 10.0 mi East 10.4 mph - N/A   Clear
4:54 AM 55.4 °F 41.0 °F 58% 29.70 in 10.0 mi East 11.5 mph - N/A   Clear
5:14 AM 53.6 °F 41.0 °F 62% 29.71 in 10.0 mi East 11.5 mph - N/A   Clear
5:33 AM 53.6 °F 41.0 °F 62% 29.71 in 10.0 mi East 10.4 mph - N/A   Clear
5:53 AM 53.6 °F 41.0 °F 62% 29.73 in 10.0 mi East 9.2 mph - N/A   Clear
6:14 AM 51.8 °F 41.0 °F 67% 29.72 in 10.0 mi East 10.4 mph - N/A   Clear
6:33 AM 51.8 °F 41.0 °F 67% 29.73 in 10.0 mi East 9.2 mph - N/A   Clear
6:53 AM 51.8 °F 41.0 °F 67% 29.73 in 10.0 mi East 9.2 mph - N/A   Clear
7:14 AM 53.6 °F 41.0 °F 62% 29.72 in 10.0 mi East 10.4 mph - N/A   Scattered Clouds
7:33 AM 55.4 °F 41.0 °F 58% 29.72 in 10.0 mi East 9.2 mph - N/A   Mostly Cloudy
7:53 AM 55.4 °F 41.0 °F 58% 29.72 in 10.0 mi East 15.0 mph 19.6 mph N/A   Mostly Cloudy
8:14 AM 55.4 °F 41.0 °F 58% 29.72 in 10.0 mi East 15.0 mph 19.6 mph N/A   Mostly Cloudy
8:33 AM 57.2 °F 41.0 °F 55% 29.72 in 10.0 mi East 15.0 mph - N/A   Scattered Clouds
8:53 AM 57.2 °F 41.0 °F 55% 29.74 in 10.0 mi East 15.0 mph 20.7 mph N/A   Scattered Clouds
9:14 AM 57.2 °F 41.0 °F 55% 29.73 in 10.0 mi East 16.1 mph - N/A   Clear
9:33 AM 59.0 °F 41.0 °F 51% 29.72 in 10.0 mi ESE 18.4 mph - N/A   Scattered Clouds
9:53 AM 59.0 °F 41.0 °F 51% 29.72 in 10.0 mi ESE 16.1 mph - N/A Thunderstorm Scattered Clouds
10:14 AM 59.0 °F 41.0 °F 51% 29.70 in 10.0 mi East 16.1 mph - N/A   Scattered Clouds
10:53 AM 60.8 °F 42.8 °F 52% 29.70 in 10.0 mi East 13.8 mph - N/A   Scattered Clouds
11:13 AM 62.6 °F 42.8 °F 48% 29.69 in 10.0 mi East 12.7 mph 20.7 mph N/A   Clear
11:34 AM 62.6 °F 42.8 °F 48% 29.70 in 10.0 mi ENE 10.4 mph 18.4 mph N/A   Scattered Clouds
12:13 PM 64.4 °F 44.6 °F 49% 29.68 in 10.0 mi ENE 15.0 mph 20.7 mph N/A   Scattered Clouds
1:13 PM 64.4 °F 44.6 °F 49% 29.67 in 10.0 mi ENE 13.8 mph - N/A   Scattered Clouds
1:34 PM 66.2 °F 44.6 °F 46% 29.66 in 10.0 mi East 10.4 mph - N/A   Scattered Clouds
1:54 PM 69.8 °F 46.4 °F 43% 29.63 in 10.0 mi East 18.4 mph 24.2 mph N/A   Clear
2:13 PM 69.8 °F 46.4 °F 43% 29.63 in 10.0 mi East 16.1 mph 27.6 mph N/A   Clear
2:34 PM 68.0 °F 46.4 °F 46% 29.64 in 10.0 mi East 18.4 mph 24.2 mph N/A Thunderstorm Clear
2:53 PM 69.8 °F 48.2 °F 46% 29.62 in 10.0 mi ESE 16.1 mph 25.3 mph N/A Thunderstorm Clear
3:14 PM 69.8 °F 46.4 °F 43% 29.63 in 10.0 mi SE 15.0 mph 19.6 mph N/A Thunderstorm Thunderstorm
3:34 PM 68.0 °F 46.4 °F 46% 29.66 in 10.0 mi ESE 11.5 mph - N/A   Mostly Cloudy
3:53 PM 68.0 °F 46.4 °F 46% 29.66 in 10.0 mi ESE 13.8 mph - N/A   Mostly Cloudy
4:14 PM 68.0 °F 48.2 °F 49% 29.66 in 10.0 mi ESE 13.8 mph - N/A Thunderstorm Mostly Cloudy
4:34 PM 66.2 °F 48.2 °F 52% 29.67 in 10.0 mi East 8.1 mph - N/A Thunderstorm Mostly Cloudy
4:53 PM 68.0 °F 48.2 °F 49% 29.67 in 10.0 mi East 9.2 mph - N/A   Mostly Cloudy
5:14 PM 68.0 °F 48.2 °F 49% 29.67 in 10.0 mi ENE 8.1 mph - N/A   Mostly Cloudy
5:34 PM 68.0 °F 48.2 °F 49% 29.66 in 10.0 mi NE 4.6 mph - N/A   Scattered Clouds
5:53 PM 68.0 °F 48.2 °F 49% 29.67 in 10.0 mi NE 5.8 mph - N/A Thunderstorm Mostly Cloudy
6:14 PM 66.2 °F 48.2 °F 52% 29.66 in 10.0 mi NE 9.2 mph - N/A   Scattered Clouds
6:34 PM 62.6 °F 48.2 °F 59% 29.67 in 10.0 mi North 19.6 mph - N/A   Scattered Clouds
6:53 PM 62.6 °F 48.2 °F 59% 29.68 in 10.0 mi North 18.4 mph - N/A   Scattered Clouds
7:14 PM 60.8 °F 48.2 °F 63% 29.68 in 10.0 mi North 17.3 mph - N/A   Scattered Clouds
7:34 PM 60.8 °F 48.2 °F 63% 29.69 in 10.0 mi North 16.1 mph - N/A   Scattered Clouds
7:53 PM 60.8 °F 48.2 °F 63% 29.69 in 10.0 mi North 17.3 mph - N/A   Scattered Clouds
8:14 PM 59.0 °F 48.2 °F 67% 29.69 in 10.0 mi North 15.0 mph - N/A   Scattered Clouds
8:34 PM 57.2 °F 48.2 °F 72% 29.69 in 10.0 mi North 15.0 mph 18.4 mph N/A   Scattered Clouds
8:53 PM 57.2 °F 48.2 °F 72% 29.70 in 10.0 mi North 12.7 mph - N/A   Mostly Cloudy
9:14 PM 57.2 °F 48.2 °F 72% 29.71 in 10.0 mi North 13.8 mph - N/A   Overcast
9:34 PM 57.2 °F 48.2 °F 72% 29.70 in 10.0 mi North 12.7 mph - N/A   Mostly Cloudy
9:53 PM 57.2 °F 48.2 °F 72% 29.69 in 10.0 mi North 13.8 mph - N/A   Scattered Clouds
10:14 PM 55.4 °F 46.4 °F 72% 29.70 in 10.0 mi North 11.5 mph - N/A   Clear
10:34 PM 55.4 °F 46.4 °F 72% 29.70 in 10.0 mi North 11.5 mph - N/A   Clear
10:53 PM 55.4 °F 48.2 °F 77% 29.71 in 10.0 mi NNE 10.4 mph - N/A   Clear
11:14 PM 55.4 °F 48.2 °F 77% 29.70 in 10.0 mi North 10.4 mph - N/A   Scattered Clouds
11:34 PM 55.4 °F 48.2 °F 77% 29.72 in 10.0 mi North 8.1 mph - N/A   Scattered Clouds
11:53 PM 55.4 °F 48.2 °F 77% 29.71 in 10.0 mi North 8.1 mph - N/A   Clear